x

Diamond Shoals (41025) Wave Buoy

2:50 - Tue 26th Jul 2016 All times are EDT. -4 hours from GMT.

  • Sig Wave height 4.6ft
  • Swell Direction
  • Peak Period 5s
  • Average Period 4s
  • Wind
    22mph, 27mph gusts
  • Sea Temp 85°f
  • Aire Temp 84°f
  • Sea Pressure 1015.6mb
  • Diamond Shoals
  • Diamond Shoals

More Historic Weather Station data

Upgrade to MSW Pro to gain access to the past 30 days of data for over 8000 Wavebouys and Weather Stations around the globe.

Join Pro

Comparision Forecast

View Surf forecast
   
mar 07/26 2:50 4.5ft 5s 4s 22 27 mph 1015.6mb 85f 84f
1:50 4.5ft 5s 4s 22 27 mph 1016mb 85f 84f
12:50 4.5ft 5s 4s 20 25 mph 1016.7mb 85f 84f
lun 07/25 11:50 4.5ft 5s 4s 20 25 mph 1016.8mb 85f 84f
10:50 4.5ft 5s 4s 20 25 mph 1016.8mb 85f 85f
9:50 4ft 5s 4s 20 25 mph 1016.8mb 85f 85f
8:50 4ft 5s 4s 20 25 mph 1016.2mb 85f 85f
6:50 4.5ft 5s 4s 20 25 mph 1015.6mb 86f 85f
5:50 4ft 5s 4s 20 25 mph 1015.7mb 86f 85f
4:50 3ft 5s 4s 20 25 mph 1016mb 86f 85f
3:50 2.5ft 4s 4s 18 22 mph 1016.3mb 86f 85f
1:50 2.5ft 5s 4s 13 16 mph 1017.7mb 86f 84f
12:50 2.5ft 5s 4s 9 13 mph 1018.4mb 86f 84f
11:50 2.5ft 5s 4s 9
mph
1018.7mb 85f 84f
10:50 2.5ft 5s 4s 13
mph
1018.5mb 85f 84f
9:50 2.5ft 4s 4s 11 13 mph 1018.4mb 85f 84f
8:50 2.5ft 5s 4s 13 16 mph 1018.7mb 85f 84f
7:50 3ft 4s 4s 16 18 mph 1018.5mb 85f 84f
6:50 3ft 5s 4s 18 20 mph 1017.8mb 85f 84f
5:50 2.5ft 4s 4s 18 20 mph 1017.5mb 85f 84f
4:50 2.5ft 4s 4s 16 18 mph 1017.3mb 85f 84f
3:50 2.5ft 4s 4s 16 18 mph 1017.3mb 85f 84f
2:50 2.5ft 4s 4s 16 20 mph 1017.3mb 85f 84f
1:50 2.5ft 4s 4s 16 18 mph 1017.3mb 85f 85f
12:50 2.5ft 4s 4s 16 20 mph 1017.5mb 85f 85f
dom 07/24 10:50 2.5ft 8s 4s 16 18 mph 1017.8mb 85f 85f
9:50 2.5ft 8s 4s 16 18 mph 1017.6mb 85f 85f
8:50 2.5ft 8s 4s 13 16 mph 1016.8mb 85f 85f
7:50 2.5ft 8s 4s 13 18 mph 1016.8mb 85f 85f
6:50 2.5ft 9s 4s 13 16 mph 1016.6mb 85f 85f
4:50 2.5ft 8s 5s 16 18 mph 1016.4mb 85f 85f
3:50 2.5ft 8s 5s 16 18 mph 1016.7mb 86f 85f
2:50 2.5ft 8s 5s 13 16 mph 1017.1mb 86f 85f
1:50 2.5ft 8s 5s 13 16 mph 1017.4mb 86f 85f
12:50 2.5ft 9s 5s 11 13 mph 1017.5mb 86f 84f
11:50 2.5ft 9s 4s 13 16 mph 1017.3mb 86f 84f
10:50 2.5ft 9s 4s 11 13 mph 1017.2mb 86f 84f
9:50 2.5ft 9s 4s 11 13 mph 1017mb 86f 84f
8:50 2.5ft 4s 4s 13 18 mph 1016.7mb 86f 84f
7:50 2.5ft 4s 4s 16 18 mph 1016.2mb 85f 84f
6:50 2.5ft 4s 4s 16 18 mph 1016.1mb 85f 83f
5:50 3ft 4s 4s 13 18 mph 1016.5mb 85f 83f
4:50 3ft 4s 4s 16 20 mph 1016.1mb 85f 83f
3:50 2.5ft 4s 4s 16 20 mph 1016.2mb 85f 84f
2:50 2.5ft 4s 4s 16 18 mph 1016.5mb 85f 84f
1:50 2.5ft 4s 4s 16 18 mph 1016.4mb 85f 84f
12:50 2.5ft 4s 4s 16 18 mph 1016mb 86f 84f
sáb 07/23 11:50 2.5ft 8s 4s 16 18 mph 1016.2mb 86f 84f
10:50 2.5ft 8s 4s 16 18 mph 1016.2mb 86f 84f
9:50 2.5ft 8s 4s 13 18 mph 1016.4mb 86f 84f
8:50 2.5ft 8s 4s 16 18 mph 1015.3mb 86f 84f
7:50 2.5ft 8s 4s 16 18 mph 1015mb 86f 85f
6:50 2.5ft 9s 4s 16 20 mph 1014.8mb 86f 85f
5:50 2.5ft 8s 4s 16
mph
1014.8mb 86f 85f
4:50 2.5ft 9s 4s 13 16 mph 1015.1mb 86f 85f
3:50 2ft 8s 5s 16 18 mph 1015.6mb 86f 85f
2:50 2.5ft 9s 5s 13 16 mph 1016.3mb 86f 85f
1:50 2.5ft 8s 5s 13 16 mph 1016.5mb 86f 84f
12:50 2.5ft 8s 5s 13 16 mph 1016.5mb 86f 84f
11:50 2ft 8s 5s 13
mph
1016.8mb 86f 84f
10:50 2.5ft 8s 5s 11 13 mph 1016.8mb 86f 84f
9:50 2.5ft 8s 5s 11
mph
1016.5mb 86f 84f
8:50 2.5ft 9s 5s 11 13 mph 1016.5mb 86f 83f
7:50 2.5ft 9s 5s 13
mph
1016.2mb 86f 83f
6:50 2.5ft 9s 5s 11 13 mph 1016.3mb 85f 83f
5:50 2.5ft 8s 5s 13 16 mph 1016mb 85f 83f
4:50 2.5ft 8s 5s 13 16 mph 1016mb 85f 83f
3:50 2.5ft 9s 5s 13 16 mph 1016.3mb 85f 83f
2:50 2.5ft 9s 5s 13 16 mph 1016.3mb 85f 83f
1:50 2.5ft 9s 5s 13 16 mph 1016.5mb 86f 83f
12:50 2.5ft 8s 5s 13 16 mph 1016.6mb 86f 83f
vie 07/22 11:50 2.5ft 8s 4s 13 16 mph 1016.8mb 87f 83f
10:50 2.5ft 8s 5s 16 18 mph 1016.7mb 87f 83f
9:50 2.5ft 8s 6s 16 18 mph 1016.5mb 86f 83f
8:50 2.5ft 9s 7s 13 16 mph 1015.9mb 86f 83f
7:50 2.5ft 8s 7s 11 13 mph 1016.3mb 86f 83f
6:50 2.5ft 9s 7s 9 13 mph 1016.5mb 86f 84f
5:50 2.5ft 9s 7s 9 11 mph 1017mb 86f 84f
4:50 2.5ft 9s 7s 9 11 mph 1017.5mb 86f 83f
3:50 2.5ft 9s 7s 7 9 mph 1018.2mb 86f 83f
2:50 2.5ft 9s 7s 7 9 mph 1019.1mb 86f 83f
1:50 2.5ft 9s 7s 4 9 mph 1019.3mb 86f 83f
12:50 2.5ft 9s 7s 4 7 mph 1019.3mb 86f 83f
11:50 3ft 9s 8s  -  2 mph 1019.7mb 85f 83f
10:50 3ft 9s 7s 4 7 mph 1020mb 85f 82f
9:50 3ft 9s 7s 4 7 mph 1019.6mb 85f 83f
8:50 2.5ft 9s 7s 4 7 mph 1019.4mb 85f 83f